Camdenton, MO

2:46 AM CDT on May 29, 2017 (GMT -0500)
Camdenton

Weather History for KH21 - February, 2012

Change the Weather History Date:

Wednesday, February 29, 2012

  Actual Average (KAIZ) Record (KAIZ)
Temperature  
Mean Temperature 54 °F -  
Max Temperature 62 °F 47 °F 69 °F (2016)
Min Temperature 46 °F 28 °F 26 °F (2008)
Degree Days  
Heating Degree Days 11    
Growing Degree Days 4 (Base 50)    
Moisture  
Dew Point 30 °F    
Average Humidity 43    
Maximum Humidity 82    
Minimum Humidity 22    
Precipitation  
Precipitation 0.04 in - - ()
Sea Level Pressure  
Sea Level Pressure 29.79 in    
Wind  
Wind Speed 15 mph ()    
Max Wind Speed 30 mph    
Max Gust Speed 44 mph    
Visibility 9.2 miles    
Events Rain , Thunderstorm    
Averages and records for this station are not official NWS values.
T = Trace of Precipitation, MM = Missing Value Source: Averaged Metar Reports

Daily Weather History Graph

Daily Weather History Graph

Search for Another Location

Airport or City:

Trip Planner

Search our weather history database for the weather conditions in past years. The results will help you decide how hot, cold, wet, or windy it might be!

Date:

Astronomy

Feb. 29, 2012 Rise Set
Actual Time 6:43 AM CST 6:03 PM CST
Civil Twilight 6:16 AM CST 6:30 PM CST
Nautical Twilight 5:46 AM CST 7:00 PM CST
Astronomical Twilight 5:15 AM CST 7:31 PM CST
Moon 10:41 AM CST 12:43 AM CST
Length of Visible Light 12h 13m
Length of Day
11h 20m
Waxing Crescent, 47% of the Moon is Illuminated
Feb 29
Waxing Crescent
Feb 29
First Quarter
Mar 8
Full
Mar 14
Last Quarter
Mar 22
New

Hourly Weather History & Observations

Time (CST) Temp. Windchill Dew Point Humidity Pressure Visibility Wind Dir Wind Speed Gust Speed Precip Events Conditions
12:15 AM 62.6 °F - 55.4 °F 77% 29.60 in 10.0 mi SSE 21.9 mph 31.1 mph N/A Rain Light Rain
12:35 AM 62.6 °F - 57.2 °F 82% 29.68 in 5.0 mi SSW 29.9 mph 43.7 mph 0.03 in Rain Rain
12:55 AM 59.0 °F - 53.6 °F 82% 29.66 in 10.0 mi SSW 17.3 mph 33.4 mph 0.04 in Rain Light Rain
1:15 AM 57.2 °F - 50.0 °F 77% 29.67 in 10.0 mi SSW 13.8 mph 23.0 mph N/A Thunderstorm Mostly Cloudy
1:35 AM 55.4 °F - 48.2 °F 77% 29.69 in 10.0 mi SSW 18.4 mph 26.5 mph N/A Thunderstorm Mostly Cloudy
1:55 AM 53.6 °F - 44.6 °F 72% 29.70 in 10.0 mi SSW 15.0 mph 26.5 mph N/A   Overcast
2:15 AM 53.6 °F - 42.8 °F 67% 29.70 in 7.0 mi SSW 16.1 mph 29.9 mph N/A   Overcast
2:35 AM 53.6 °F - 41.0 °F 62% 29.71 in 7.0 mi SW 12.7 mph 19.6 mph N/A   Overcast
2:55 AM 51.8 °F - 39.2 °F 62% 29.71 in 7.0 mi SW 15.0 mph 23.0 mph N/A   Overcast
3:15 AM 51.8 °F - 37.4 °F 58% 29.72 in 7.0 mi SW 13.8 mph - N/A   Scattered Clouds
3:35 AM 51.8 °F - 37.4 °F 58% 29.73 in 7.0 mi SW 12.7 mph - N/A   Clear
3:55 AM 51.8 °F - 35.6 °F 54% 29.74 in 7.0 mi SW 10.4 mph 20.7 mph N/A   Clear
4:15 AM 51.8 °F - 35.6 °F 54% 29.75 in 7.0 mi SW 13.8 mph 20.7 mph N/A   Clear
4:35 AM 51.8 °F - 35.6 °F 54% 29.75 in 7.0 mi WSW 13.8 mph 18.4 mph N/A   Clear
4:55 AM 51.8 °F - 35.6 °F 54% 29.76 in 7.0 mi SW 13.8 mph 23.0 mph N/A   Clear
5:15 AM 51.8 °F - 35.6 °F 54% 29.77 in 7.0 mi SW 11.5 mph 20.7 mph N/A   Clear
5:35 AM 51.8 °F - 33.8 °F 50% 29.77 in 7.0 mi SW 13.8 mph 18.4 mph N/A   Clear
5:55 AM 50.0 °F - 33.8 °F 54% 29.77 in 7.0 mi SW 12.7 mph 16.1 mph N/A   Clear
6:15 AM 50.0 °F - 33.8 °F 54% 29.78 in 7.0 mi SW 11.5 mph 17.3 mph N/A   Clear
6:35 AM 50.0 °F - 33.8 °F 54% 29.78 in 7.0 mi SW 11.5 mph - N/A   Clear
6:55 AM 50.0 °F - 32.0 °F 50% 29.78 in 7.0 mi SW 11.5 mph - N/A   Clear
7:15 AM 50.0 °F - 32.0 °F 50% 29.78 in 7.0 mi SW 11.5 mph - N/A   Clear
7:35 AM 50.0 °F - 33.8 °F 54% 29.79 in 10.0 mi SW 9.2 mph - N/A   Clear
7:55 AM 51.8 °F - 32.0 °F 47% 29.80 in 10.0 mi SW 13.8 mph 23.0 mph N/A   Clear
8:15 AM 51.8 °F - 32.0 °F 47% 29.80 in 10.0 mi WSW 15.0 mph 20.7 mph N/A   Clear
8:35 AM 51.8 °F - 32.0 °F 47% 29.81 in 10.0 mi SW 15.0 mph 21.9 mph N/A   Clear
8:55 AM 53.6 °F - 30.2 °F 41% 29.81 in 10.0 mi WSW 17.3 mph 25.3 mph N/A   Clear
9:15 AM 53.6 °F - 28.4 °F 38% 29.82 in 10.0 mi WSW 18.4 mph 32.2 mph N/A   Clear
9:55 AM 55.4 °F - 30.2 °F 38% 29.82 in 10.0 mi SW 16.1 mph 23.0 mph N/A   Clear
10:15 AM 55.4 °F - 30.2 °F 38% 29.81 in 10.0 mi SW 19.6 mph 27.6 mph N/A   Clear
10:35 AM 55.4 °F - 28.4 °F 36% 29.82 in 10.0 mi WSW 23.0 mph 32.2 mph N/A   Clear
10:55 AM 55.4 °F - 28.4 °F 36% 29.82 in 10.0 mi WSW 19.6 mph 27.6 mph N/A   Clear
11:35 AM 55.4 °F - 24.8 °F 31% 29.82 in 10.0 mi WSW 23.0 mph 33.4 mph N/A   Clear
11:55 AM 57.2 °F - 26.6 °F 31% 29.82 in 10.0 mi SW 19.6 mph 33.4 mph N/A   Clear
12:15 PM 59.0 °F - 24.8 °F 27% 29.80 in 10.0 mi SW 16.1 mph 32.2 mph N/A   Clear
12:35 PM 59.0 °F - 24.8 °F 27% 29.80 in 10.0 mi WSW 17.3 mph 34.5 mph N/A   Clear
12:55 PM 59.0 °F - 23.0 °F 25% 29.79 in 10.0 mi WSW 24.2 mph 36.8 mph N/A   Clear
1:15 PM 59.0 °F - 23.0 °F 25% 29.78 in 10.0 mi WSW 26.5 mph 35.7 mph N/A   Clear
1:35 PM 60.8 °F - 23.0 °F 23% 29.77 in 10.0 mi WSW 25.3 mph 31.1 mph N/A   Clear
1:55 PM 60.8 °F - 23.0 °F 23% 29.77 in 10.0 mi SW 23.0 mph 35.7 mph N/A   Clear
2:15 PM 60.8 °F - 21.2 °F 22% 29.77 in 10.0 mi WSW 27.6 mph 38.0 mph N/A   Clear
2:35 PM 60.8 °F - 23.0 °F 23% 29.77 in 10.0 mi WSW 26.5 mph 36.8 mph N/A   Clear
2:55 PM 60.8 °F - 21.2 °F 22% 29.78 in 10.0 mi WSW 26.5 mph 39.1 mph N/A   Clear
3:15 PM 60.8 °F - 21.2 °F 22% 29.77 in 10.0 mi WSW 25.3 mph 39.1 mph N/A   Clear
3:35 PM 60.8 °F - 23.0 °F 23% 29.78 in 10.0 mi WSW 23.0 mph 33.4 mph N/A   Clear
3:55 PM 60.8 °F - 21.2 °F 22% 29.78 in 10.0 mi WSW 23.0 mph 35.7 mph N/A   Clear
4:15 PM 60.8 °F - 23.0 °F 23% 29.79 in 10.0 mi WSW 24.2 mph 36.8 mph N/A   Clear
4:35 PM 59.0 °F - 23.0 °F 25% 29.80 in 10.0 mi WSW 15.0 mph 35.7 mph N/A   Clear
4:55 PM 59.0 °F - 23.0 °F 25% 29.80 in 10.0 mi WSW 21.9 mph 39.1 mph N/A   Clear
5:15 PM 59.0 °F - 23.0 °F 25% 29.81 in 10.0 mi WSW 19.6 mph 29.9 mph N/A   Clear
5:35 PM 57.2 °F - 23.0 °F 27% 29.82 in 10.0 mi West 19.6 mph 26.5 mph N/A   Clear
5:55 PM 55.4 °F - 23.0 °F 29% 29.82 in 10.0 mi WSW 17.3 mph 24.2 mph N/A   Clear
6:15 PM 55.4 °F - 23.0 °F 29% 29.83 in 10.0 mi West 15.0 mph 19.6 mph N/A   Clear
6:35 PM 53.6 °F - 24.8 °F 33% 29.84 in 10.0 mi WSW 12.7 mph 18.4 mph N/A   Clear
7:15 PM 53.6 °F - 24.8 °F 33% 29.85 in 10.0 mi WSW 12.7 mph 17.3 mph N/A   Clear
7:35 PM 53.6 °F - 24.8 °F 33% 29.85 in 10.0 mi WSW 9.2 mph - N/A   Clear
7:55 PM 51.8 °F - 24.8 °F 35% 29.86 in 10.0 mi WSW 11.5 mph - N/A   Clear
8:15 PM 51.8 °F - 24.8 °F 35% 29.86 in 10.0 mi WSW 9.2 mph - N/A   Clear
8:35 PM 51.8 °F - 26.6 °F 38% 29.87 in 10.0 mi WSW 8.1 mph - N/A   Clear
8:55 PM 51.8 °F - 26.6 °F 38% 29.87 in 10.0 mi WSW 8.1 mph - N/A   Clear
9:15 PM 50.0 °F - 26.6 °F 40% 29.88 in 10.0 mi WSW 5.8 mph - N/A   Clear
9:35 PM 50.0 °F - 26.6 °F 40% 29.89 in 10.0 mi WSW 6.9 mph - N/A   Clear
9:55 PM 50.0 °F - 26.6 °F 40% 29.89 in 10.0 mi West 6.9 mph - N/A   Clear
10:15 PM 48.2 °F - 26.6 °F 43% 29.89 in 10.0 mi West 6.9 mph - N/A   Clear
10:35 PM 46.4 °F 42.9 °F 26.6 °F 46% 29.89 in 10.0 mi WSW 6.9 mph - N/A   Clear
10:55 PM 46.4 °F 43.5 °F 26.6 °F 46% 29.89 in 10.0 mi West 5.8 mph - N/A   Clear
11:15 PM 46.4 °F 43.5 °F 26.6 °F 46% 29.90 in 10.0 mi WSW 5.8 mph - N/A   Clear
11:35 PM 46.4 °F 44.3 °F 26.6 °F 46% 29.90 in 10.0 mi WSW 4.6 mph - N/A   Clear
11:55 PM 46.4 °F 44.3 °F 26.6 °F 46% 29.90 in 10.0 mi SW 4.6 mph - N/A   Clear